sensor_id;sensor_type;location;lat;lon;timestamp;temperature;humidity
25871;DHT22;13689;48.590;7.752;2022-10-16T00:00:38;17.70;95.00
25871;DHT22;13689;48.590;7.752;2022-10-16T00:03:05;17.70;95.00
25871;DHT22;13689;48.590;7.752;2022-10-16T00:05:31;17.70;95.00
25871;DHT22;13689;48.590;7.752;2022-10-16T00:07:56;17.70;94.90
25871;DHT22;13689;48.590;7.752;2022-10-16T00:10:22;17.70;95.00
25871;DHT22;13689;48.590;7.752;2022-10-16T00:12:48;17.70;95.10
25871;DHT22;13689;48.590;7.752;2022-10-16T00:15:14;17.70;95.20
25871;DHT22;13689;48.590;7.752;2022-10-16T00:17:40;17.70;95.10
25871;DHT22;13689;48.590;7.752;2022-10-16T00:20:06;17.70;95.10
25871;DHT22;13689;48.590;7.752;2022-10-16T00:22:32;17.70;95.20
25871;DHT22;13689;48.590;7.752;2022-10-16T00:24:58;17.70;95.20
25871;DHT22;13689;48.590;7.752;2022-10-16T00:27:24;17.70;95.10
25871;DHT22;13689;48.590;7.752;2022-10-16T00:29:52;17.60;95.10
25871;DHT22;13689;48.590;7.752;2022-10-16T00:32:19;17.60;95.20
25871;DHT22;13689;48.590;7.752;2022-10-16T00:34:45;17.60;95.20
25871;DHT22;13689;48.590;7.752;2022-10-16T00:37:11;17.60;95.30
25871;DHT22;13689;48.590;7.752;2022-10-16T00:39:36;17.70;95.30
25871;DHT22;13689;48.590;7.752;2022-10-16T00:42:02;17.70;95.30
25871;DHT22;13689;48.590;7.752;2022-10-16T00:44:55;17.60;95.30
25871;DHT22;13689;48.590;7.752;2022-10-16T00:47:37;17.60;95.20
25871;DHT22;13689;48.590;7.752;2022-10-16T00:50:11;17.70;95.30
25871;DHT22;13689;48.590;7.752;2022-10-16T00:52:46;17.70;95.20
25871;DHT22;13689;48.590;7.752;2022-10-16T00:55:12;17.70;95.20
25871;DHT22;13689;48.590;7.752;2022-10-16T00:57:39;17.70;95.30
25871;DHT22;13689;48.590;7.752;2022-10-16T01:00:07;17.70;95.20
25871;DHT22;13689;48.590;7.752;2022-10-16T01:02:33;17.70;95.00
25871;DHT22;13689;48.590;7.752;2022-10-16T01:04:59;17.60;95.00
25871;DHT22;13689;48.590;7.752;2022-10-16T01:10:27;17.70;95.00
25871;DHT22;13689;48.590;7.752;2022-10-16T01:13:18;17.70;95.00
25871;DHT22;13689;48.590;7.752;2022-10-16T01:16:00;17.70;95.00
25871;DHT22;13689;48.590;7.752;2022-10-16T01:18:41;17.70;95.00
25871;DHT22;13689;48.590;7.752;2022-10-16T01:21:26;17.70;94.90
25871;DHT22;13689;48.590;7.752;2022-10-16T01:24:45;17.70;94.90
25871;DHT22;13689;48.590;7.752;2022-10-16T01:29:56;17.60;95.10
25871;DHT22;13689;48.590;7.752;2022-10-16T01:35:25;17.50;94.70
25871;DHT22;13689;48.590;7.752;2022-10-16T01:38:14;17.50;94.80
25871;DHT22;13689;48.590;7.752;2022-10-16T01:40:45;17.50;94.90
25871;DHT22;13689;48.590;7.752;2022-10-16T01:43:15;17.50;95.00
25871;DHT22;13689;48.590;7.752;2022-10-16T01:45:44;17.50;95.10
25871;DHT22;13689;48.590;7.752;2022-10-16T01:48:11;17.50;95.10
25871;DHT22;13689;48.590;7.752;2022-10-16T01:50:38;17.50;95.10
25871;DHT22;13689;48.590;7.752;2022-10-16T01:53:05;17.50;95.10
25871;DHT22;13689;48.590;7.752;2022-10-16T01:55:36;17.50;95.00
25871;DHT22;13689;48.590;7.752;2022-10-16T01:58:05;17.50;95.10
25871;DHT22;13689;48.590;7.752;2022-10-16T02:00:32;17.50;95.10
25871;DHT22;13689;48.590;7.752;2022-10-16T02:03:01;17.50;95.10
25871;DHT22;13689;48.590;7.752;2022-10-16T02:05:34;17.50;95.10
25871;DHT22;13689;48.590;7.752;2022-10-16T02:08:02;17.50;95.20
25871;DHT22;13689;48.590;7.752;2022-10-16T02:10:28;17.40;95.10
25871;DHT22;13689;48.590;7.752;2022-10-16T02:13:05;17.40;95.20
25871;DHT22;13689;48.590;7.752;2022-10-16T02:15:31;17.40;95.60
25871;DHT22;13689;48.590;7.752;2022-10-16T02:17:57;17.40;95.30
25871;DHT22;13689;48.590;7.752;2022-10-16T02:20:27;17.40;95.20
25871;DHT22;13689;48.590;7.752;2022-10-16T02:22:54;17.40;95.40
25871;DHT22;13689;48.590;7.752;2022-10-16T02:25:38;17.40;95.50
25871;DHT22;13689;48.590;7.752;2022-10-16T02:28:15;17.40;95.50
25871;DHT22;13689;48.590;7.752;2022-10-16T02:30:49;17.40;95.50
25871;DHT22;13689;48.590;7.752;2022-10-16T02:33:17;17.40;95.60
25871;DHT22;13689;48.590;7.752;2022-10-16T02:35:46;17.40;95.60
25871;DHT22;13689;48.590;7.752;2022-10-16T02:38:14;17.40;95.60
25871;DHT22;13689;48.590;7.752;2022-10-16T02:40:41;17.40;95.60
25871;DHT22;13689;48.590;7.752;2022-10-16T02:43:08;17.40;95.60
25871;DHT22;13689;48.590;7.752;2022-10-16T02:45:34;17.40;95.60
25871;DHT22;13689;48.590;7.752;2022-10-16T02:48:00;17.40;95.50
25871;DHT22;13689;48.590;7.752;2022-10-16T02:50:25;17.40;95.50
25871;DHT22;13689;48.590;7.752;2022-10-16T02:52:51;17.40;95.60
25871;DHT22;13689;48.590;7.752;2022-10-16T02:55:17;17.40;95.70
25871;DHT22;13689;48.590;7.752;2022-10-16T02:57:43;17.40;95.60
25871;DHT22;13689;48.590;7.752;2022-10-16T03:00:14;17.40;95.70
25871;DHT22;13689;48.590;7.752;2022-10-16T03:02:40;17.40;95.70
25871;DHT22;13689;48.590;7.752;2022-10-16T03:05:07;17.40;95.70
25871;DHT22;13689;48.590;7.752;2022-10-16T03:07:33;17.30;95.70
25871;DHT22;13689;48.590;7.752;2022-10-16T03:09:58;17.30;95.80
25871;DHT22;13689;48.590;7.752;2022-10-16T03:12:26;17.30;95.90
25871;DHT22;13689;48.590;7.752;2022-10-16T03:14:52;17.30;95.90
25871;DHT22;13689;48.590;7.752;2022-10-16T03:17:17;17.30;95.90
25871;DHT22;13689;48.590;7.752;2022-10-16T03:19:43;17.30;95.90
25871;DHT22;13689;48.590;7.752;2022-10-16T03:22:09;17.30;95.90
25871;DHT22;13689;48.590;7.752;2022-10-16T03:24:34;17.30;95.90
25871;DHT22;13689;48.590;7.752;2022-10-16T03:27:00;17.30;96.00
25871;DHT22;13689;48.590;7.752;2022-10-16T03:29:26;17.30;96.00
25871;DHT22;13689;48.590;7.752;2022-10-16T03:31:53;17.20;96.40
25871;DHT22;13689;48.590;7.752;2022-10-16T03:34:18;17.20;96.30
25871;DHT22;13689;48.590;7.752;2022-10-16T03:36:44;17.30;96.30
25871;DHT22;13689;48.590;7.752;2022-10-16T03:39:09;17.20;96.20
25871;DHT22;13689;48.590;7.752;2022-10-16T03:41:35;17.30;96.30
25871;DHT22;13689;48.590;7.752;2022-10-16T03:44:01;17.30;96.20
25871;DHT22;13689;48.590;7.752;2022-10-16T03:46:26;17.30;96.20
25871;DHT22;13689;48.590;7.752;2022-10-16T03:48:52;17.30;96.10
25871;DHT22;13689;48.590;7.752;2022-10-16T03:51:18;17.30;96.20
25871;DHT22;13689;48.590;7.752;2022-10-16T03:53:43;17.30;96.10
25871;DHT22;13689;48.590;7.752;2022-10-16T03:56:09;17.30;96.10
25871;DHT22;13689;48.590;7.752;2022-10-16T03:58:35;17.30;96.00
25871;DHT22;13689;48.590;7.752;2022-10-16T04:01:00;17.30;96.00
25871;DHT22;13689;48.590;7.752;2022-10-16T04:03:26;17.30;96.00
25871;DHT22;13689;48.590;7.752;2022-10-16T04:05:51;17.30;96.00
25871;DHT22;13689;48.590;7.752;2022-10-16T04:08:18;17.30;96.00
25871;DHT22;13689;48.590;7.752;2022-10-16T04:10:44;17.30;96.10
25871;DHT22;13689;48.590;7.752;2022-10-16T04:13:10;17.30;96.00
25871;DHT22;13689;48.590;7.752;2022-10-16T04:15:36;17.30;96.00
25871;DHT22;13689;48.590;7.752;2022-10-16T04:18:01;17.30;96.00
25871;DHT22;13689;48.590;7.752;2022-10-16T04:20:27;17.30;95.90
25871;DHT22;13689;48.590;7.752;2022-10-16T04:22:53;17.30;95.90
25871;DHT22;13689;48.590;7.752;2022-10-16T04:25:18;17.30;95.90
25871;DHT22;13689;48.590;7.752;2022-10-16T04:27:44;17.30;95.80
25871;DHT22;13689;48.590;7.752;2022-10-16T04:30:10;17.30;95.80
25871;DHT22;13689;48.590;7.752;2022-10-16T04:32:35;17.30;95.80
25871;DHT22;13689;48.590;7.752;2022-10-16T04:35:01;17.30;95.80
25871;DHT22;13689;48.590;7.752;2022-10-16T04:37:28;17.30;95.80
25871;DHT22;13689;48.590;7.752;2022-10-16T04:39:54;17.30;95.80
25871;DHT22;13689;48.590;7.752;2022-10-16T04:42:20;17.30;95.80
25871;DHT22;13689;48.590;7.752;2022-10-16T04:44:46;17.30;95.80
25871;DHT22;13689;48.590;7.752;2022-10-16T04:47:12;17.30;95.80
25871;DHT22;13689;48.590;7.752;2022-10-16T04:49:38;17.30;95.70
25871;DHT22;13689;48.590;7.752;2022-10-16T04:52:03;17.30;95.70
25871;DHT22;13689;48.590;7.752;2022-10-16T04:54:29;17.30;95.70
25871;DHT22;13689;48.590;7.752;2022-10-16T04:56:55;17.30;95.60
25871;DHT22;13689;48.590;7.752;2022-10-16T04:59:22;17.30;95.60
25871;DHT22;13689;48.590;7.752;2022-10-16T05:01:48;17.30;95.60
25871;DHT22;13689;48.590;7.752;2022-10-16T05:04:14;17.30;95.60
25871;DHT22;13689;48.590;7.752;2022-10-16T05:06:41;17.20;95.60
25871;DHT22;13689;48.590;7.752;2022-10-16T05:09:07;17.30;95.60
25871;DHT22;13689;48.590;7.752;2022-10-16T05:11:33;17.20;95.60
25871;DHT22;13689;48.590;7.752;2022-10-16T05:13:59;17.20;95.60
25871;DHT22;13689;48.590;7.752;2022-10-16T05:16:25;17.20;95.60
25871;DHT22;13689;48.590;7.752;2022-10-16T05:18:54;17.20;95.60
25871;DHT22;13689;48.590;7.752;2022-10-16T05:21:20;17.20;95.60
25871;DHT22;13689;48.590;7.752;2022-10-16T05:23:46;17.20;95.70
25871;DHT22;13689;48.590;7.752;2022-10-16T05:26:11;17.20;95.70
25871;DHT22;13689;48.590;7.752;2022-10-16T05:28:37;17.10;95.70
25871;DHT22;13689;48.590;7.752;2022-10-16T05:31:07;17.20;95.70
25871;DHT22;13689;48.590;7.752;2022-10-16T05:33:33;17.10;95.80
25871;DHT22;13689;48.590;7.752;2022-10-16T05:36:04;17.20;95.80
25871;DHT22;13689;48.590;7.752;2022-10-16T05:38:30;17.20;95.80
25871;DHT22;13689;48.590;7.752;2022-10-16T05:40:56;17.20;95.80
25871;DHT22;13689;48.590;7.752;2022-10-16T05:43:22;17.20;95.80
25871;DHT22;13689;48.590;7.752;2022-10-16T05:46:04;17.20;95.80
25871;DHT22;13689;48.590;7.752;2022-10-16T05:48:31;17.20;95.70
25871;DHT22;13689;48.590;7.752;2022-10-16T05:51:04;17.20;95.80
25871;DHT22;13689;48.590;7.752;2022-10-16T05:53:32;17.20;95.70
25871;DHT22;13689;48.590;7.752;2022-10-16T05:55:58;17.20;95.60
25871;DHT22;13689;48.590;7.752;2022-10-16T05:58:25;17.20;95.60
25871;DHT22;13689;48.590;7.752;2022-10-16T06:00:59;17.10;95.70
25871;DHT22;13689;48.590;7.752;2022-10-16T06:03:25;17.10;95.60
25871;DHT22;13689;48.590;7.752;2022-10-16T06:05:51;17.20;95.70
25871;DHT22;13689;48.590;7.752;2022-10-16T06:08:18;17.20;95.60
25871;DHT22;13689;48.590;7.752;2022-10-16T06:10:44;17.10;95.50
25871;DHT22;13689;48.590;7.752;2022-10-16T06:13:11;17.10;95.40
25871;DHT22;13689;48.590;7.752;2022-10-16T06:15:37;17.10;95.40
25871;DHT22;13689;48.590;7.752;2022-10-16T06:18:04;17.10;95.40
25871;DHT22;13689;48.590;7.752;2022-10-16T06:20:30;17.10;95.60
25871;DHT22;13689;48.590;7.752;2022-10-16T06:22:57;17.10;95.40
25871;DHT22;13689;48.590;7.752;2022-10-16T06:25:22;17.10;95.40
25871;DHT22;13689;48.590;7.752;2022-10-16T06:27:48;17.10;95.50
25871;DHT22;13689;48.590;7.752;2022-10-16T06:30:14;17.20;95.40
25871;DHT22;13689;48.590;7.752;2022-10-16T06:32:39;17.20;95.30
25871;DHT22;13689;48.590;7.752;2022-10-16T06:35:05;17.20;95.30
25871;DHT22;13689;48.590;7.752;2022-10-16T06:37:31;17.20;95.20
25871;DHT22;13689;48.590;7.752;2022-10-16T06:39:56;17.20;95.20
25871;DHT22;13689;48.590;7.752;2022-10-16T06:42:22;17.20;95.20
25871;DHT22;13689;48.590;7.752;2022-10-16T06:44:47;17.20;95.10
25871;DHT22;13689;48.590;7.752;2022-10-16T06:47:13;17.30;95.10
25871;DHT22;13689;48.590;7.752;2022-10-16T06:49:38;17.30;95.10
25871;DHT22;13689;48.590;7.752;2022-10-16T06:52:04;17.30;95.00
25871;DHT22;13689;48.590;7.752;2022-10-16T06:54:30;17.40;94.70
25871;DHT22;13689;48.590;7.752;2022-10-16T06:56:55;17.40;94.80
25871;DHT22;13689;48.590;7.752;2022-10-16T06:59:21;17.40;94.80
25871;DHT22;13689;48.590;7.752;2022-10-16T07:01:47;17.40;94.80
25871;DHT22;13689;48.590;7.752;2022-10-16T07:04:12;17.40;94.60
25871;DHT22;13689;48.590;7.752;2022-10-16T07:06:39;17.40;94.60
25871;DHT22;13689;48.590;7.752;2022-10-16T07:09:08;17.40;94.40
25871;DHT22;13689;48.590;7.752;2022-10-16T07:11:34;17.40;94.60
25871;DHT22;13689;48.590;7.752;2022-10-16T07:14:01;17.40;94.50
25871;DHT22;13689;48.590;7.752;2022-10-16T07:16:29;17.40;94.60
25871;DHT22;13689;48.590;7.752;2022-10-16T07:18:57;17.40;94.60
25871;DHT22;13689;48.590;7.752;2022-10-16T07:21:24;17.40;94.60
25871;DHT22;13689;48.590;7.752;2022-10-16T07:23:56;17.40;94.60
25871;DHT22;13689;48.590;7.752;2022-10-16T07:26:23;17.40;94.50
25871;DHT22;13689;48.590;7.752;2022-10-16T07:28:50;17.50;94.40
25871;DHT22;13689;48.590;7.752;2022-10-16T07:31:16;17.50;94.30
25871;DHT22;13689;48.590;7.752;2022-10-16T07:33:44;17.50;94.30
25871;DHT22;13689;48.590;7.752;2022-10-16T07:36:11;17.60;94.30
25871;DHT22;13689;48.590;7.752;2022-10-16T07:38:36;17.50;94.10
25871;DHT22;13689;48.590;7.752;2022-10-16T07:41:05;17.60;94.00
25871;DHT22;13689;48.590;7.752;2022-10-16T07:43:31;17.60;94.00
25871;DHT22;13689;48.590;7.752;2022-10-16T07:45:57;17.60;93.90
25871;DHT22;13689;48.590;7.752;2022-10-16T07:48:25;17.60;93.90
25871;DHT22;13689;48.590;7.752;2022-10-16T07:50:51;17.60;93.80
25871;DHT22;13689;48.590;7.752;2022-10-16T07:53:17;17.60;93.70
25871;DHT22;13689;48.590;7.752;2022-10-16T07:55:43;17.70;93.70
25871;DHT22;13689;48.590;7.752;2022-10-16T07:58:09;17.70;93.60
25871;DHT22;13689;48.590;7.752;2022-10-16T08:00:36;17.70;93.40
25871;DHT22;13689;48.590;7.752;2022-10-16T08:03:02;17.80;93.40
25871;DHT22;13689;48.590;7.752;2022-10-16T08:05:28;17.80;93.30
25871;DHT22;13689;48.590;7.752;2022-10-16T08:07:54;17.80;93.40
25871;DHT22;13689;48.590;7.752;2022-10-16T08:10:22;17.90;93.30
25871;DHT22;13689;48.590;7.752;2022-10-16T08:12:48;17.90;93.10
25871;DHT22;13689;48.590;7.752;2022-10-16T08:15:14;17.90;93.00
25871;DHT22;13689;48.590;7.752;2022-10-16T08:17:40;18.00;93.00
25871;DHT22;13689;48.590;7.752;2022-10-16T08:20:06;18.10;92.90
25871;DHT22;13689;48.590;7.752;2022-10-16T08:22:32;18.20;92.80
25871;DHT22;13689;48.590;7.752;2022-10-16T08:24:58;18.30;92.70
25871;DHT22;13689;48.590;7.752;2022-10-16T08:27:23;18.30;92.50
25871;DHT22;13689;48.590;7.752;2022-10-16T08:29:52;18.30;92.20
25871;DHT22;13689;48.590;7.752;2022-10-16T08:32:18;18.30;92.20
25871;DHT22;13689;48.590;7.752;2022-10-16T08:34:43;18.40;92.10
25871;DHT22;13689;48.590;7.752;2022-10-16T08:37:09;18.40;91.90
25871;DHT22;13689;48.590;7.752;2022-10-16T08:39:36;18.40;91.80
25871;DHT22;13689;48.590;7.752;2022-10-16T08:47:43;18.50;91.40
25871;DHT22;13689;48.590;7.752;2022-10-16T08:50:20;18.50;91.10
25871;DHT22;13689;48.590;7.752;2022-10-16T08:52:46;18.60;90.90
25871;DHT22;13689;48.590;7.752;2022-10-16T08:55:41;18.60;90.60
25871;DHT22;13689;48.590;7.752;2022-10-16T08:58:15;18.50;90.50
25871;DHT22;13689;48.590;7.752;2022-10-16T09:00:43;18.60;90.60
25871;DHT22;13689;48.590;7.752;2022-10-16T09:03:36;18.60;90.30
25871;DHT22;13689;48.590;7.752;2022-10-16T09:09:01;18.80;90.00
25871;DHT22;13689;48.590;7.752;2022-10-16T09:14:17;18.80;89.10
25871;DHT22;13689;48.590;7.752;2022-10-16T09:16:58;18.90;88.90
25871;DHT22;13689;48.590;7.752;2022-10-16T09:19:38;18.90;88.60
25871;DHT22;13689;48.590;7.752;2022-10-16T09:22:15;18.90;88.20
25871;DHT22;13689;48.590;7.752;2022-10-16T09:24:41;19.00;87.70
25871;DHT22;13689;48.590;7.752;2022-10-16T09:27:12;19.10;87.10
25871;DHT22;13689;48.590;7.752;2022-10-16T09:29:38;19.10;86.70
25871;DHT22;13689;48.590;7.752;2022-10-16T09:32:12;19.10;86.20
25871;DHT22;13689;48.590;7.752;2022-10-16T09:34:43;19.20;85.80
25871;DHT22;13689;48.590;7.752;2022-10-16T09:37:13;19.20;85.50
25871;DHT22;13689;48.590;7.752;2022-10-16T09:39:47;19.30;85.10
25871;DHT22;13689;48.590;7.752;2022-10-16T09:42:30;19.40;84.80
25871;DHT22;13689;48.590;7.752;2022-10-16T09:44:57;19.50;84.50
25871;DHT22;13689;48.590;7.752;2022-10-16T09:47:25;19.50;84.20
25871;DHT22;13689;48.590;7.752;2022-10-16T09:49:57;19.50;83.80
25871;DHT22;13689;48.590;7.752;2022-10-16T09:52:25;19.70;83.50
25871;DHT22;13689;48.590;7.752;2022-10-16T09:54:55;19.70;83.00
25871;DHT22;13689;48.590;7.752;2022-10-16T09:57:22;19.80;82.60
25871;DHT22;13689;48.590;7.752;2022-10-16T09:59:50;19.90;82.30
25871;DHT22;13689;48.590;7.752;2022-10-16T10:02:18;19.90;82.00
25871;DHT22;13689;48.590;7.752;2022-10-16T10:04:53;20.10;81.80
25871;DHT22;13689;48.590;7.752;2022-10-16T10:07:42;20.20;81.30
25871;DHT22;13689;48.590;7.752;2022-10-16T10:10:28;20.20;80.90
25871;DHT22;13689;48.590;7.752;2022-10-16T10:12:55;20.30;80.50
25871;DHT22;13689;48.590;7.752;2022-10-16T10:15:22;20.30;80.30
25871;DHT22;13689;48.590;7.752;2022-10-16T10:17:57;20.40;80.30
25871;DHT22;13689;48.590;7.752;2022-10-16T10:20:31;20.30;79.60
25871;DHT22;13689;48.590;7.752;2022-10-16T10:23:01;20.30;79.40
25871;DHT22;13689;48.590;7.752;2022-10-16T10:28:24;20.40;79.10
25871;DHT22;13689;48.590;7.752;2022-10-16T10:31:06;20.40;79.10
25871;DHT22;13689;48.590;7.752;2022-10-16T10:34:01;20.40;79.00
25871;DHT22;13689;48.590;7.752;2022-10-16T10:36:41;20.50;78.80
25871;DHT22;13689;48.590;7.752;2022-10-16T10:39:17;20.50;78.80
25871;DHT22;13689;48.590;7.752;2022-10-16T10:47:21;20.60;78.30
25871;DHT22;13689;48.590;7.752;2022-10-16T10:59:22;20.50;78.10
25871;DHT22;13689;48.590;7.752;2022-10-16T11:07:27;20.40;77.60
25871;DHT22;13689;48.590;7.752;2022-10-16T11:09:58;20.40;77.50
25871;DHT22;13689;48.590;7.752;2022-10-16T11:12:34;20.50;77.40
25871;DHT22;13689;48.590;7.752;2022-10-16T11:17:43;20.70;76.80
25871;DHT22;13689;48.590;7.752;2022-10-16T11:20:23;20.80;76.40
25871;DHT22;13689;48.590;7.752;2022-10-16T11:23:14;20.80;76.00
25871;DHT22;13689;48.590;7.752;2022-10-16T11:25:45;20.80;75.70
25871;DHT22;13689;48.590;7.752;2022-10-16T11:28:32;20.70;75.70
25871;DHT22;13689;48.590;7.752;2022-10-16T11:31:16;20.70;75.80
25871;DHT22;13689;48.590;7.752;2022-10-16T11:55:49;20.60;75.50
25871;DHT22;13689;48.590;7.752;2022-10-16T12:01:20;20.70;75.20
25871;DHT22;13689;48.590;7.752;2022-10-16T12:04:02;20.70;75.10
25871;DHT22;13689;48.590;7.752;2022-10-16T12:06:54;20.60;75.00
25871;DHT22;13689;48.590;7.752;2022-10-16T12:09:32;20.60;75.00
25871;DHT22;13689;48.590;7.752;2022-10-16T12:11:59;20.60;75.00
25871;DHT22;13689;48.590;7.752;2022-10-16T12:14:35;20.50;74.90
25871;DHT22;13689;48.590;7.752;2022-10-16T12:20:19;20.50;75.70
25871;DHT22;13689;48.590;7.752;2022-10-16T12:22:50;20.50;74.80
25871;DHT22;13689;48.590;7.752;2022-10-16T12:25:21;20.40;74.80
25871;DHT22;13689;48.590;7.752;2022-10-16T12:27:59;20.50;74.80
25871;DHT22;13689;48.590;7.752;2022-10-16T12:30:27;20.50;74.80
25871;DHT22;13689;48.590;7.752;2022-10-16T12:33:05;20.60;74.80
25871;DHT22;13689;48.590;7.752;2022-10-16T12:35:34;20.70;74.80
25871;DHT22;13689;48.590;7.752;2022-10-16T12:38:49;20.70;74.60
25871;DHT22;13689;48.590;7.752;2022-10-16T12:41:03;20.80;74.60
25871;DHT22;13689;48.590;7.752;2022-10-16T12:46:24;20.80;74.40
25871;DHT22;13689;48.590;7.752;2022-10-16T12:48:47;20.90;74.40
25871;DHT22;13689;48.590;7.752;2022-10-16T12:54:17;20.90;74.10
25871;DHT22;13689;48.590;7.752;2022-10-16T12:56:50;21.00;74.10
25871;DHT22;13689;48.590;7.752;2022-10-16T13:02:45;21.20;74.00
25871;DHT22;13689;48.590;7.752;2022-10-16T13:26:41;21.60;73.30
25871;DHT22;13689;48.590;7.752;2022-10-16T13:29:10;21.60;73.30
25871;DHT22;13689;48.590;7.752;2022-10-16T13:31:38;21.60;73.40
25871;DHT22;13689;48.590;7.752;2022-10-16T13:34:05;21.60;73.60
25871;DHT22;13689;48.590;7.752;2022-10-16T13:36:42;21.60;73.60
25871;DHT22;13689;48.590;7.752;2022-10-16T13:39:23;21.50;73.70
25871;DHT22;13689;48.590;7.752;2022-10-16T13:42:11;21.50;73.90
25871;DHT22;13689;48.590;7.752;2022-10-16T13:44:50;21.50;73.90
25871;DHT22;13689;48.590;7.752;2022-10-16T13:47:22;21.50;74.10
25871;DHT22;13689;48.590;7.752;2022-10-16T13:50:11;21.50;74.10
25871;DHT22;13689;48.590;7.752;2022-10-16T13:52:39;21.50;74.30
25871;DHT22;13689;48.590;7.752;2022-10-16T13:55:33;21.50;74.50
25871;DHT22;13689;48.590;7.752;2022-10-16T13:58:07;21.50;74.50
25871;DHT22;13689;48.590;7.752;2022-10-16T14:00:33;21.50;74.50
25871;DHT22;13689;48.590;7.752;2022-10-16T14:03:06;21.50;74.60
25871;DHT22;13689;48.590;7.752;2022-10-16T14:05:33;21.50;74.40
25871;DHT22;13689;48.590;7.752;2022-10-16T14:07:59;21.50;74.50
25871;DHT22;13689;48.590;7.752;2022-10-16T14:10:29;21.50;74.20
25871;DHT22;13689;48.590;7.752;2022-10-16T14:13:06;21.50;74.10
25871;DHT22;13689;48.590;7.752;2022-10-16T14:15:33;21.60;73.60
25871;DHT22;13689;48.590;7.752;2022-10-16T14:17:59;21.50;73.40
25871;DHT22;13689;48.590;7.752;2022-10-16T14:20:30;21.50;73.40
25871;DHT22;13689;48.590;7.752;2022-10-16T14:25:46;21.40;73.50
25871;DHT22;13689;48.590;7.752;2022-10-16T14:28:15;21.40;73.30
25871;DHT22;13689;48.590;7.752;2022-10-16T14:30:58;21.40;73.30
25871;DHT22;13689;48.590;7.752;2022-10-16T14:38:39;21.40;72.30
25871;DHT22;13689;48.590;7.752;2022-10-16T14:41:05;21.40;72.00
25871;DHT22;13689;48.590;7.752;2022-10-16T14:43:36;21.40;71.30
25871;DHT22;13689;48.590;7.752;2022-10-16T14:46:06;21.50;70.80
25871;DHT22;13689;48.590;7.752;2022-10-16T14:48:32;21.50;70.40
25871;DHT22;13689;48.590;7.752;2022-10-16T14:50:58;21.50;69.90
25871;DHT22;13689;48.590;7.752;2022-10-16T14:53:23;21.50;69.50
25871;DHT22;13689;48.590;7.752;2022-10-16T14:55:49;21.50;69.30
25871;DHT22;13689;48.590;7.752;2022-10-16T14:58:19;21.50;69.30
25871;DHT22;13689;48.590;7.752;2022-10-16T15:00:45;21.50;69.40
25871;DHT22;13689;48.590;7.752;2022-10-16T15:03:11;21.50;69.40
25871;DHT22;13689;48.590;7.752;2022-10-16T15:05:37;21.50;69.30
25871;DHT22;13689;48.590;7.752;2022-10-16T15:08:03;21.50;69.10
25871;DHT22;13689;48.590;7.752;2022-10-16T15:10:31;21.50;69.00
25871;DHT22;13689;48.590;7.752;2022-10-16T15:12:58;21.50;69.00
25871;DHT22;13689;48.590;7.752;2022-10-16T15:15:33;21.50;68.90
25871;DHT22;13689;48.590;7.752;2022-10-16T15:18:00;21.40;68.70
25871;DHT22;13689;48.590;7.752;2022-10-16T15:20:28;21.40;68.50
25871;DHT22;13689;48.590;7.752;2022-10-16T15:22:55;21.40;68.50
25871;DHT22;13689;48.590;7.752;2022-10-16T15:28:02;21.40;68.70
25871;DHT22;13689;48.590;7.752;2022-10-16T15:30:28;21.40;68.60
25871;DHT22;13689;48.590;7.752;2022-10-16T15:32:54;21.40;68.60
25871;DHT22;13689;48.590;7.752;2022-10-16T15:35:19;21.40;68.60
25871;DHT22;13689;48.590;7.752;2022-10-16T15:37:47;21.40;68.60
25871;DHT22;13689;48.590;7.752;2022-10-16T15:40:14;21.40;68.50
25871;DHT22;13689;48.590;7.752;2022-10-16T15:42:40;21.40;69.40
25871;DHT22;13689;48.590;7.752;2022-10-16T15:45:06;21.40;68.70
25871;DHT22;13689;48.590;7.752;2022-10-16T15:47:32;21.40;68.60
25871;DHT22;13689;48.590;7.752;2022-10-16T15:49:58;21.40;68.50
25871;DHT22;13689;48.590;7.752;2022-10-16T15:52:24;21.40;68.30
25871;DHT22;13689;48.590;7.752;2022-10-16T15:54:49;21.40;68.30
25871;DHT22;13689;48.590;7.752;2022-10-16T15:57:19;21.30;68.40
25871;DHT22;13689;48.590;7.752;2022-10-16T15:59:44;21.30;68.20
25871;DHT22;13689;48.590;7.752;2022-10-16T16:02:10;21.30;68.00
25871;DHT22;13689;48.590;7.752;2022-10-16T16:04:36;21.30;68.00
25871;DHT22;13689;48.590;7.752;2022-10-16T16:07:02;21.30;68.10
25871;DHT22;13689;48.590;7.752;2022-10-16T16:09:31;21.20;68.30
25871;DHT22;13689;48.590;7.752;2022-10-16T16:11:56;21.20;68.70
25871;DHT22;13689;48.590;7.752;2022-10-16T16:14:27;21.10;68.90
25871;DHT22;13689;48.590;7.752;2022-10-16T16:16:58;21.10;69.10
25871;DHT22;13689;48.590;7.752;2022-10-16T16:19:23;21.10;70.30
25871;DHT22;13689;48.590;7.752;2022-10-16T16:21:50;21.00;69.60
25871;DHT22;13689;48.590;7.752;2022-10-16T16:24:16;21.00;69.80
25871;DHT22;13689;48.590;7.752;2022-10-16T16:26:42;20.90;70.10
25871;DHT22;13689;48.590;7.752;2022-10-16T16:29:13;20.90;70.20
25871;DHT22;13689;48.590;7.752;2022-10-16T16:31:40;20.80;70.30
25871;DHT22;13689;48.590;7.752;2022-10-16T16:34:06;20.80;70.50
25871;DHT22;13689;48.590;7.752;2022-10-16T16:36:34;20.80;70.70
25871;DHT22;13689;48.590;7.752;2022-10-16T16:39:04;20.70;71.00
25871;DHT22;13689;48.590;7.752;2022-10-16T16:41:30;20.70;71.10
25871;DHT22;13689;48.590;7.752;2022-10-16T16:44:05;20.70;71.50
25871;DHT22;13689;48.590;7.752;2022-10-16T16:46:32;20.60;71.70
25871;DHT22;13689;48.590;7.752;2022-10-16T16:48:58;20.60;71.90
25871;DHT22;13689;48.590;7.752;2022-10-16T16:51:26;20.60;72.10
25871;DHT22;13689;48.590;7.752;2022-10-16T16:53:54;20.50;72.30
25871;DHT22;13689;48.590;7.752;2022-10-16T16:56:21;20.50;72.60
25871;DHT22;13689;48.590;7.752;2022-10-16T16:58:49;20.40;72.70
25871;DHT22;13689;48.590;7.752;2022-10-16T17:01:15;20.40;73.10
25871;DHT22;13689;48.590;7.752;2022-10-16T17:03:42;20.30;73.30
25871;DHT22;13689;48.590;7.752;2022-10-16T17:06:12;20.30;73.70
25871;DHT22;13689;48.590;7.752;2022-10-16T17:08:40;20.20;74.00
25871;DHT22;13689;48.590;7.752;2022-10-16T17:11:10;20.20;74.30
25871;DHT22;13689;48.590;7.752;2022-10-16T17:13:36;20.20;74.60
25871;DHT22;13689;48.590;7.752;2022-10-16T17:16:03;20.20;74.90
25871;DHT22;13689;48.590;7.752;2022-10-16T17:18:29;20.10;75.10
25871;DHT22;13689;48.590;7.752;2022-10-16T17:20:59;20.10;75.40
25871;DHT22;13689;48.590;7.752;2022-10-16T17:23:25;20.10;75.70
25871;DHT22;13689;48.590;7.752;2022-10-16T17:25:50;20.10;76.00
25871;DHT22;13689;48.590;7.752;2022-10-16T17:28:16;20.10;76.30
25871;DHT22;13689;48.590;7.752;2022-10-16T17:30:42;20.10;76.70
25871;DHT22;13689;48.590;7.752;2022-10-16T17:33:09;20.10;77.00
25871;DHT22;13689;48.590;7.752;2022-10-16T17:35:44;20.00;77.30
25871;DHT22;13689;48.590;7.752;2022-10-16T17:38:10;20.00;77.70